Airfield :
LOGIN :

Register | Disclaimer

   EN    FR    IT 

 










Legend :    VFR   Marginal VFR   IFR   Intensive IFR   Very Intensive IFR
Visi :
Ceiling :
>= 8 km
>= 3000ft
5 to 8 km
1000 to 3000 ft
1500m to 5 km
500 to 1000 ft
800 to 1500m
200 to 500 ft
< 800m
< 200 ft
Symbols :   Thunderstorms  Fog  Heavy snow  Heavy precipitations  Wind > 20 kt
SIGMETs :     Misc.  Thunderstorms  Icing  Turbulence  Mountain Waves  Volcanic Ashes






- Airport Elevation : 74 ft
- IATA code : EIN


EHEH - Eindhoven

CURRENT METAR :
  • 152125Z AUTO 20008KT 9999 OVC190 05/02 Q1006 BLU 20009KT CAVOK

EXPIRED METARs :
  • 152055Z AUTO 19008KT 9999 OVC190 05/02 Q1006 BLU 20009KT CAVOK
  • 152025Z AUTO 19008KT 160V230 9999 OVC200 06/02 Q1006 BLU 20009KT CAVOK
  • 151955Z AUTO 19008KT 170V230 9999 OVC200 06/02 Q1005 BLU 20009KT CAVOK
  • 151925Z AUTO 20010KT 9999 BKN210 OVC280 06/02 Q1005 BLU 20009KT CAVOK
  • 151855Z AUTO 20009KT 9999 OVC210 06/02 Q1005 BLU 20009KT CAVOK

TAF TAF EHEH
Valid from the 15 at 18:00 until the 17 at 00:00 UTC


151745Z 1518/1624 22010KT 9999 SCT025 BKN030
BECMG 1604/1606 18007KT
PROB30
TEMPO 1612/1617 SCT018 BKN022 OVC040
BECMG 1613/1615 12005KT



MET'MAP, your aeronautical weather chart ! - Copyright ORBIFLY December 2007 - Disclaimer

ORBIFLY MET'MAP TEAM :

Programming & Development : Alexandra Zaïnal
Concept & original design : Baudouin d'Aumeries
Assistance for programming : Marc-Olivier Méhu
Technical & hardware support : Manuel Goepfert

Contact : metmap@orbifly.com




SOURCES & CREDITS :

   NOAA